Hovedside
METAR-TAF:

METAR-TAF

Lufthavner :

Västerås, Sverige

Västerås lufthavn

breddegrad: 59-35N, lengdegrad: 016-38E, høyde over havet: 6 m

Gjeldene værobservasjon

Denne rapporten ble laget for 23 minutter siden, klokken 05:50 UTC
Vind 2 kt fra Sørvest
Temperatur -4°C
Luftfuktighet 86%
Trykk 1026 hPa
Sikt 10 km eller mer

METAR: ESOW 240550Z AUTO 22002KT 9999 NCD M04/M06 Q1026

Tid: 07:13 (06:13 UTC)

Varsel

Denne rapporten ble laget for 15 timer og 43 minutter siden, klokken 14:30 UTC
Varsel gyldig fra 23. klokken 15 UTC til 23. klokken 18 UTC
Vind 8 kt fra Vest-sørvest
Sikt 10 km eller mer
ingen skyer under 1500 m og ingen bygeskyer

TAF: ESOW 231430Z 2315/2318 25008KT CAVOK

Værobservasjoner og værvarsel for over 4000 flyplasser (METAR- og TAF-rapporter).

Tilgjengelige stasjoner er representert av de røde og gule prikkene på kartet.

Hold musepekeren over prikken for å se navnet på stasjonen.

Klikk så for å se værobservasjoner og -varsler.

For å forandre kartet kan du klikke på den grønne knappen med svart kryss for å zoome inn, på den grønne knappen med strek for å zoome ut, eller på de grønne pilene for å se tilstøtende kart.


METAR-TAF: